Latest Coastal Weather Observations for Lombadina

IDW60701

Issued at 7:23 am WST Wednesday 25 January 2017 (issued every 10 minutes, with the page automatically refreshed every 10 minutes)

About coastal observations | Map of coastal stations | Coastal observations for WA | Marine services | Other Formats
Station Details ID: 503016 Name: LOMBADINA AIRSTRIP Lat: -16.52 Lon: 122.92 Height: 42.0 m
Data from the previous 72 hours. | See also: Recent months for locations in Western Australia
Date/Time
WST
Temp
°C
Wind Pressure Rain since
9am
mm
Weather Cloud Vis
km
Sea
Height
m
Swell
Dir  Spd
kts
Gust
kts
hPa Trend Height
m
Period
s
Dir
25/07:00am 25.9 SW 1 3 1008.0 - 41.2 - Partly cloudy 10 - - - -
25/06:30am 25.4 SW 3 6 1007.5 - 41.2 - - 10 - - - -
25/06:00am 25.6 W 3 6 1007.5 - 41.2 Rain - 10 - - - -
25/05:30am 25.2 SW 4 7 1007.5 - 41.0 - Partly cloudy 10 - - - -
25/05:00am 25.0 W 4 8 1007.1 - 40.4 - Partly cloudy 10 - - - -
25/04:30am 25.0 W 3 6 1007.1 - 39.4 - Partly cloudy 10 - - - -
25/04:21am 25.4 WSW 5 9 1007.1 - 39.4 - Partly cloudy 10 - - - -
25/04:00am 26.1 W 4 9 1006.7 - 38.6 - Partly cloudy 10 - - - -
25/03:30am 25.9 WNW 5 9 1006.6 - 37.2 - Cloudy 10 - - - -
25/03:00am 26.0 NW 7 11 1006.9 - 36.2 Rain Cloudy 10 - - - -
25/02:44am 26.7 NW 5 7 1006.6 - 35.2 - Partly cloudy 10 - - - -
25/02:30am 26.8 WNW 2 4 1006.6 - 34.8 - Partly cloudy 10 - - - -
25/02:26am 26.9 WNW 3 4 1006.4 - 34.6 - Partly cloudy 10 - - - -
25/02:07am 26.5 ESE 4 6 1006.3 - 33.8 - Partly cloudy 4 - - - -
25/02:00am 26.7 E 3 6 1006.6 - 33.4 - Partly cloudy 6 - - - -
25/01:50am 26.7 ESE 1 3 1006.6 - 32.8 - Partly cloudy 4 - - - -
25/01:30am 26.7 SW 2 7 1006.6 - 32.2 - Partly cloudy 10 - - - -
25/01:27am 26.8 SW 4 7 1006.6 - 32.0 - Partly cloudy 8 - - - -
25/01:05am 26.6 S 1 4 1007.2 - 30.8 - Partly cloudy 2 - - - -
25/01:01am 26.7 SE 2 4 1007.4 - 30.6 - Partly cloudy 4 - - - -
25/01:00am 26.7 ESE 2 4 1007.4 - 30.6 - Partly cloudy 5 - - - -
25/12:30am 27.4 CALM 0 3 1007.6 - 30.2 - Partly cloudy 10 - - - -
25/12:00am 27.3 SW 4 7 1007.7 - 30.2 - Cloudy 10 - - - -
 
Date/Time
WST
Temp
°C
Wind Pressure Rain since
9am
mm
Weather Cloud Vis
km
Sea
Height
m
Swell
Dir  Spd
kts
Gust
kts
hPa Trend Height
m
Period
s
Dir
24/11:30pm 27.2 WSW 3 7 1007.9 - 30.2 - - 10 - - - -
24/11:00pm 27.3 SW 3 6 1008.0 - 30.2 - Partly cloudy 10 - - - -
24/10:30pm 27.6 WSW 5 8 1008.2 - 30.2 - - 10 - - - -
24/10:00pm 28.2 W 3 6 1008.4 - 30.2 - - 10 - - - -
24/09:30pm 28.3 W 1 4 1008.4 - 30.2 - Partly cloudy 10 - - - -
24/09:00pm 28.4 WSW 4 11 1008.2 - 30.2 - - 10 - - - -
24/08:30pm 28.4 WSW 4 8 1008.2 - 30.2 - - 10 - - - -
24/08:00pm 28.4 WSW 5 10 1007.8 - 30.2 - Partly cloudy 10 - - - -
24/07:30pm 28.6 WSW 5 9 1007.4 - 30.2 - Partly cloudy 10 - - - -
24/07:00pm 28.7 WSW 5 9 1006.8 - 30.2 - Partly cloudy 10 - - - -
24/06:30pm 28.9 WSW 6 10 1006.2 - 30.2 - Partly cloudy 10 - - - -
24/06:00pm 29.0 W 5 10 1005.2 - 30.2 - Mostly clear 10 - - - -
24/05:30pm 29.0 WSW 5 11 1005.4 - 30.2 - Partly cloudy 10 - - - -
24/05:00pm 28.9 WSW 5 12 1005.3 - 30.2 - Partly cloudy 10 - - - -
24/04:30pm 29.5 W 7 14 1004.9 - 30.2 - Partly cloudy 10 - - - -
24/04:00pm 29.9 W 5 12 1004.5 - 30.2 - Partly cloudy 10 - - - -
24/03:30pm 29.8 W 7 13 1004.7 - 30.2 - Partly cloudy 10 - - - -
24/03:00pm 30.2 W 8 16 1004.8 - 30.2 Recent precip. - 10 - - - -
24/02:30pm 30.9 W 6 13 1005.1 - 30.2 - Partly cloudy 10 - - - -
24/02:00pm 31.2 W 8 14 1005.4 - 29.2 - - 10 - - - -
24/01:30pm 30.6 W 8 14 1005.8 - 26.8 - Partly cloudy 10 - - - -
24/01:00pm 31.3 WSW 8 15 1006.5 - 24.0 - - 10 - - - -
24/12:30pm 30.2 WSW 7 13 1007.0 - 21.4 - Partly cloudy 10 - - - -
24/12:00pm 29.6 WSW 5 10 1007.5 - 18.8 Rain Cloudy 10 - - - -
24/11:30am 29.6 WSW 7 12 1008.0 - 16.0 - Partly cloudy 10 - - - -
24/11:00am 29.3 W 4 9 1008.4 - 14.0 - Partly cloudy 10 - - - -
24/10:32am 26.6 WNW 4 6 1008.8 - 10.4 - Partly cloudy 10 - - - -
24/10:30am 26.5 WNW 3 6 1008.8 - 10.0 - Partly cloudy 10 - - - -
24/10:21am 25.9 WNW 4 7 1008.9 - 9.0 - Partly cloudy 4 - - - -
24/10:00am 24.1 SW 6 10 1009.3 - 6.0 - Partly cloudy 0.9 - - - -
24/09:50am 24.0 SSW 9 14 1009.4 - 4.6 - Partly cloudy 1 - - - -
24/09:39am 24.8 SSW 7 12 1009.2 - 3.8 - Partly cloudy 4 - - - -
24/09:30am 26.5 SSW 6 12 1009.2 - 3.0 - Partly cloudy 10 - - - -
24/09:14am 26.5 S 3 7 1009.2 - 1.6 - Partly cloudy 10 - - - -
24/09:00am 26.3 SSW 2 5 1009.1 - 2.6 Rain Cloudy 5 - - - -
24/08:35am 26.3 SW 5 11 1009.2 - 0.0 - Partly cloudy 4 - - - -
24/08:30am 28.9 SW 4 11 1009.0 - 0.0 - Partly cloudy 10 - - - -
24/08:00am 28.7 SW 3 6 1008.9 - 0.0 - Partly cloudy 10 - - - -
24/07:30am 28.9 SW 1 4 1008.4 - 0.0 - Partly cloudy 10 - - - -
24/07:00am 28.0 SSE 1 3 1008.4 - 0.0 - Partly cloudy 10 - - - -
24/06:30am 27.4 S 2 3 1008.5 - 0.0 - - 10 - - - -
24/06:00am 26.7 CALM 0 0 1008.0 - 0.0 - Partly cloudy 10 - - - -
24/05:30am 27.0 SSW 1 3 1007.7 - 0.0 - Partly cloudy 10 - - - -
24/05:00am 27.3 SW 3 6 1007.1 - 0.0 - Partly cloudy 10 - - - -
24/04:30am 27.3 WSW 4 8 1006.4 - 0.0 - Partly cloudy 10 - - - -
24/04:00am 27.5 WSW 4 8 1006.2 - 0.0 - Partly cloudy 10 - - - -
24/03:30am 27.6 W 5 9 1005.9 - 0.0 - Partly cloudy 10 - - - -
24/03:00am 27.6 W 5 11 1005.9 - 0.0 - Partly cloudy 10 - - - -
24/02:30am 27.7 W 6 13 1006.2 - 0.0 - Partly cloudy 10 - - - -
24/02:00am 27.7 W 6 9 1006.3 - 0.0 - Partly cloudy 10 - - - -
24/01:30am 27.8 W 5 10 1006.6 - 0.0 - Partly cloudy 10 - - - -
24/01:00am 28.0 W 6 11 1007.0 - 0.0 - - 10 - - - -
24/12:30am 27.9 W 6 11 1007.7 - 0.0 - - 10 - - - -
24/12:00am 27.9 W 5 9 1007.9 - 0.0 - - 10 - - - -
 
Date/Time
WST
Temp
°C
Wind Pressure Rain since
9am
mm
Weather Cloud Vis
km
Sea
Height
m
Swell
Dir  Spd
kts
Gust
kts
hPa Trend Height
m
Period
s
Dir
23/11:30pm 28.0 W 5 9 1008.3 - 0.0 - - 10 - - - -
23/11:00pm 28.0 W 4 8 1008.6 - 0.0 - - 10 - - - -
23/10:30pm 28.1 W 4 7 1008.7 - 0.0 - - 10 - - - -
23/10:00pm 28.0 W 5 9 1008.6 - 0.0 - - 10 - - - -
23/09:30pm 28.2 W 5 10 1008.4 - 0.0 - - 10 - - - -
23/09:00pm 28.1 WSW 4 8 1008.1 - 0.0 - - 10 - - - -
23/08:30pm 28.1 WSW 5 9 1007.9 - 0.0 - - 10 - - - -
23/08:00pm 28.2 WSW 6 11 1007.3 - 0.0 - - 10 - - - -
23/07:30pm 28.2 WSW 5 9 1006.9 - 0.0 - - 10 - - - -
23/07:00pm 28.3 WSW 6 10 1006.6 - 0.0 - - 10 - - - -
23/06:30pm 28.5 W 6 11 1006.3 - 0.0 - - 10 - - - -
23/06:00pm 28.9 W 7 12 1005.9 - 0.0 - - 10 - - - -
23/05:30pm 29.0 WSW 6 12 1005.4 - 0.0 - - 10 - - - -
23/05:00pm 29.4 W 8 14 1005.2 - 0.0 - - 10 - - - -
23/04:30pm 29.8 W 9 15 1004.9 - 0.0 - - 10 - - - -
23/04:00pm 30.8 W 8 15 1004.9 - 0.0 - - 10 - - - -
23/03:30pm 30.9 W 9 15 1005.1 - 0.0 - - 10 - - - -
23/03:00pm 31.9 W 8 13 1005.5 - 0.0 - - 10 - - - -
23/02:30pm 30.9 W 7 13 1005.9 - 0.0 - - 10 - - - -
23/02:00pm 31.6 W 7 12 1006.0 - 0.0 - - 10 - - - -
23/01:30pm 31.2 W 7 13 1006.2 - 0.0 - - 10 - - - -
23/01:00pm 31.4 W 8 13 1006.5 - 0.0 - - 10 - - - -
23/12:30pm 31.1 W 8 13 1006.7 - 0.0 - - 10 - - - -
23/12:00pm 31.1 W 8 14 1007.1 - 0.0 - - 10 - - - -
23/11:30am 31.0 W 8 15 1007.3 - 0.0 - Partly cloudy 10 - - - -
23/11:00am 30.8 W 8 16 1007.6 - 0.0 - - 10 - - - -
23/10:30am 30.8 W 7 14 1008.0 - 0.0 - - 10 - - - -
23/10:00am 29.9 WSW 6 13 1008.0 - 0.0 - Partly cloudy 10 - - - -
23/09:30am 30.0 W 6 11 1008.2 - 0.0 - Partly cloudy 10 - - - -
23/09:00am 29.7 WSW 6 11 1008.3 - 0.0 - Partly cloudy 10 - - - -
23/08:30am 29.2 SW 5 10 1008.5 - 0.0 - Partly cloudy 10 - - - -
23/08:00am 29.0 SW 4 8 1008.5 - 0.0 - Partly cloudy 10 - - - -
23/07:30am 28.8 SW 3 6 1008.4 - 0.0 - Partly cloudy 10 - - - -
23/07:00am 27.9 SW 3 5 1007.9 - 0.0 - Partly cloudy 10 - - - -
23/06:30am 27.2 SW 2 4 1007.6 - 0.0 - - 10 - - - -
23/06:00am 27.0 SW 2 5 1007.3 - 0.0 - Mostly clear 10 - - - -
23/05:30am 27.0 SW 3 5 1007.2 - 0.0 - Partly cloudy 10 - - - -
23/05:00am 26.8 WSW 3 5 1006.9 - 0.0 - Partly cloudy 10 - - - -
23/04:30am 26.7 WSW 2 5 1006.5 - 0.0 - Partly cloudy 10 - - - -
23/04:00am 26.8 WSW 2 4 1006.5 - 0.0 - Partly cloudy 10 - - - -
23/03:30am 26.9 WSW 3 5 1006.6 - 0.0 - Partly cloudy 10 - - - -
23/03:00am 27.0 WSW 3 6 1006.7 - 0.0 - Partly cloudy 10 - - - -
23/02:30am 27.3 WSW 3 6 1006.7 - 0.0 - Partly cloudy 10 - - - -
23/02:00am 27.2 WSW 2 4 1006.8 - 0.0 - Partly cloudy 10 - - - -
23/01:30am 27.0 WSW 2 4 1007.0 - 0.0 - Partly cloudy 10 - - - -
23/01:00am 26.9 SW 2 4 1007.2 - 0.0 - Partly cloudy 10 - - - -
23/12:30am 27.3 SW 2 5 1007.6 - 0.0 - Partly cloudy 10 - - - -
23/12:00am 27.5 WSW 2 5 1007.8 - 0.0 - Cloudy 10 - - - -
 
Date/Time
WST
Temp
°C
Wind Pressure Rain since
9am
mm
Weather Cloud Vis
km
Sea
Height
m
Swell
Dir  Spd
kts
Gust
kts
hPa Trend Height
m
Period
s
Dir
22/11:30pm 27.8 W 3 6 1008.0 - 0.0 - Partly cloudy 10 - - - -
22/11:00pm 28.0 W 4 7 1008.3 - 0.0 - Partly cloudy 10 - - - -
22/10:30pm 27.8 WSW 3 5 1008.5 - 0.0 - Partly cloudy 10 - - - -
22/10:00pm 27.9 WSW 3 5 1008.6 - 0.0 - Partly cloudy 10 - - - -
22/09:30pm 28.2 W 4 8 1008.4 - 0.0 - Partly cloudy 10 - - - -
22/09:00pm 28.2 WSW 4 7 1008.4 - 0.0 - Partly cloudy 10 - - - -
22/08:30pm 28.3 WSW 4 8 1008.2 - 0.0 - Partly cloudy 10 - - - -
22/08:00pm 28.4 WSW 5 11 1007.9 - 0.0 - Partly cloudy 10 - - - -
22/07:30pm 28.5 WSW 5 10 1007.6 - 0.0 - Partly cloudy 10 - - - -
22/07:00pm 28.7 W 4 9 1007.5 - 0.0 - Partly cloudy 10 - - - -
22/06:30pm 28.8 W 7 13 1007.0 - 0.0 - Partly cloudy 10 - - - -
22/06:00pm 29.3 W 8 14 1006.5 - 0.0 - Mostly clear 10 - - - -
22/05:30pm 29.8 W 9 16 1006.3 - 0.0 - Partly cloudy 10 - - - -
22/05:00pm 29.9 W 8 18 1006.2 - 0.0 - Partly cloudy 10 - - - -
22/04:30pm 31.2 W 7 15 1006.1 - 0.0 - Partly cloudy 10 - - - -
22/04:00pm 30.5 W 8 15 1006.2 - 0.0 - Partly cloudy 10 - - - -
22/03:30pm 30.7 WNW 10 16 1006.4 - 0.0 - - 10 - - - -
22/03:00pm 31.4 W 9 17 1006.6 - 0.0 - - 10 - - - -
22/02:30pm 31.5 W 7 14 1006.8 - 0.0 - - 10 - - - -
22/02:00pm 31.1 W 8 16 1006.9 - 0.0 - - 10 - - - -
22/01:30pm 31.2 W 8 14 1007.5 - 0.0 - Partly cloudy 10 - - - -
22/01:00pm 31.2 W 8 15 1007.8 - 0.0 - Partly cloudy 10 - - - -
22/12:30pm 31.1 W 7 12 1008.2 - 0.0 - Partly cloudy 10 - - - -
22/12:00pm 31.2 W 8 12 1008.6 - 0.0 - Partly cloudy 10 - - - -
22/11:30am 30.8 W 7 12 1008.7 - 0.0 - Partly cloudy 10 - - - -
22/11:00am 30.7 W 7 14 1009.1 - 0.0 - Partly cloudy 10 - - - -
22/10:30am 30.8 W 8 14 1009.2 - 0.0 - Partly cloudy 10 - - - -
22/10:00am 30.5 W 8 14 1009.3 - 0.0 - Partly cloudy 10 - - - -
22/09:30am 30.0 W 7 13 1009.4 - 0.0 - Partly cloudy 10 - - - -
22/09:00am 29.8 W 7 11 1009.5 - 0.0 - Mostly clear 10 - - - -
22/08:30am 29.9 W 8 12 1009.5 - 0.0 - Partly cloudy 10 - - - -
22/08:00am 29.0 W 7 11 1009.4 - 0.0 - Partly cloudy 10 - - - -
22/07:30am 29.3 W 4 8 1009.5 - 0.0 - Partly cloudy 10 - - - -

Other Formats:

Comma delimited format used in spreadsheet applications
http://www.bom.gov.au/fwo/IDW60701/IDW60701.99206.axf

JavaScript Object Notation format (JSON) in row-major order
http://www.bom.gov.au/fwo/IDW60701/IDW60701.99206.json